sensor_id;sensor_type;location;lat;lon;timestamp;temperature;humidity
46085;DHT22;31823;47.032;8.310;2022-07-06T00:00:05;16.50;99.90
46085;DHT22;31823;47.032;8.310;2022-07-06T00:02:31;16.50;99.90
46085;DHT22;31823;47.032;8.310;2022-07-06T00:04:57;16.50;99.90
46085;DHT22;31823;47.032;8.310;2022-07-06T00:07:23;16.60;99.90
46085;DHT22;31823;47.032;8.310;2022-07-06T00:09:49;16.60;99.90
46085;DHT22;31823;47.032;8.310;2022-07-06T00:12:15;16.60;99.90
46085;DHT22;31823;47.032;8.310;2022-07-06T00:14:41;16.60;99.90
46085;DHT22;31823;47.032;8.310;2022-07-06T00:17:07;16.40;99.90
46085;DHT22;31823;47.032;8.310;2022-07-06T00:19:34;16.30;99.90
46085;DHT22;31823;47.032;8.310;2022-07-06T00:21:59;16.30;99.90
46085;DHT22;31823;47.032;8.310;2022-07-06T00:24:25;16.30;99.90
46085;DHT22;31823;47.032;8.310;2022-07-06T00:26:50;16.20;99.90
46085;DHT22;31823;47.032;8.310;2022-07-06T00:29:16;16.20;99.90
46085;DHT22;31823;47.032;8.310;2022-07-06T00:31:42;16.20;99.90
46085;DHT22;31823;47.032;8.310;2022-07-06T00:34:07;16.20;99.90
46085;DHT22;31823;47.032;8.310;2022-07-06T00:36:33;16.20;99.90
46085;DHT22;31823;47.032;8.310;2022-07-06T00:38:59;16.20;99.90
46085;DHT22;31823;47.032;8.310;2022-07-06T00:41:24;16.10;99.90
46085;DHT22;31823;47.032;8.310;2022-07-06T00:43:55;16.10;99.90
46085;DHT22;31823;47.032;8.310;2022-07-06T00:46:31;16.10;99.90
46085;DHT22;31823;47.032;8.310;2022-07-06T00:48:57;16.00;99.90
46085;DHT22;31823;47.032;8.310;2022-07-06T00:51:29;16.00;99.90
46085;DHT22;31823;47.032;8.310;2022-07-06T00:53:58;16.10;99.90
46085;DHT22;31823;47.032;8.310;2022-07-06T00:56:25;16.00;99.90
46085;DHT22;31823;47.032;8.310;2022-07-06T00:58:51;16.00;99.90
46085;DHT22;31823;47.032;8.310;2022-07-06T01:01:17;16.00;99.90
46085;DHT22;31823;47.032;8.310;2022-07-06T01:03:42;16.10;99.90
46085;DHT22;31823;47.032;8.310;2022-07-06T01:06:08;16.20;99.90
46085;DHT22;31823;47.032;8.310;2022-07-06T01:08:34;16.30;99.90
46085;DHT22;31823;47.032;8.310;2022-07-06T01:11:00;16.30;99.90
46085;DHT22;31823;47.032;8.310;2022-07-06T01:13:27;16.30;99.90
46085;DHT22;31823;47.032;8.310;2022-07-06T01:15:52;16.30;99.90
46085;DHT22;31823;47.032;8.310;2022-07-06T01:18:19;16.30;99.90
46085;DHT22;31823;47.032;8.310;2022-07-06T01:20:44;16.30;99.90
46085;DHT22;31823;47.032;8.310;2022-07-06T01:23:10;16.20;99.90
46085;DHT22;31823;47.032;8.310;2022-07-06T01:25:36;16.30;99.90
46085;DHT22;31823;47.032;8.310;2022-07-06T01:28:01;16.20;99.90
46085;DHT22;31823;47.032;8.310;2022-07-06T01:30:28;16.20;99.90
46085;DHT22;31823;47.032;8.310;2022-07-06T01:32:53;16.30;99.90
46085;DHT22;31823;47.032;8.310;2022-07-06T01:35:19;16.30;99.90
46085;DHT22;31823;47.032;8.310;2022-07-06T01:37:45;16.20;99.90
46085;DHT22;31823;47.032;8.310;2022-07-06T01:40:12;16.20;99.90
46085;DHT22;31823;47.032;8.310;2022-07-06T01:42:38;16.10;99.90
46085;DHT22;31823;47.032;8.310;2022-07-06T01:45:05;16.00;99.90
46085;DHT22;31823;47.032;8.310;2022-07-06T01:47:31;16.00;99.90
46085;DHT22;31823;47.032;8.310;2022-07-06T01:49:59;16.00;99.90
46085;DHT22;31823;47.032;8.310;2022-07-06T01:52:25;15.90;99.90
46085;DHT22;31823;47.032;8.310;2022-07-06T01:54:51;15.90;99.90
46085;DHT22;31823;47.032;8.310;2022-07-06T01:57:16;15.90;99.90
46085;DHT22;31823;47.032;8.310;2022-07-06T01:59:42;15.90;99.90
46085;DHT22;31823;47.032;8.310;2022-07-06T02:02:08;15.80;99.90
46085;DHT22;31823;47.032;8.310;2022-07-06T02:04:33;15.80;99.90
46085;DHT22;31823;47.032;8.310;2022-07-06T02:06:59;15.80;99.90
46085;DHT22;31823;47.032;8.310;2022-07-06T02:09:25;15.80;99.90
46085;DHT22;31823;47.032;8.310;2022-07-06T02:11:50;15.80;99.90
46085;DHT22;31823;47.032;8.310;2022-07-06T02:14:16;15.80;99.90
46085;DHT22;31823;47.032;8.310;2022-07-06T02:16:41;15.90;99.90
46085;DHT22;31823;47.032;8.310;2022-07-06T02:19:07;15.90;99.90
46085;DHT22;31823;47.032;8.310;2022-07-06T02:21:33;15.90;99.90
46085;DHT22;31823;47.032;8.310;2022-07-06T02:23:58;15.80;99.90
46085;DHT22;31823;47.032;8.310;2022-07-06T02:26:24;15.80;99.90
46085;DHT22;31823;47.032;8.310;2022-07-06T02:28:50;15.70;99.90
46085;DHT22;31823;47.032;8.310;2022-07-06T02:31:15;15.60;99.90
46085;DHT22;31823;47.032;8.310;2022-07-06T02:33:41;15.60;99.90
46085;DHT22;31823;47.032;8.310;2022-07-06T02:36:07;15.60;99.90
46085;DHT22;31823;47.032;8.310;2022-07-06T02:38:33;15.50;99.90
46085;DHT22;31823;47.032;8.310;2022-07-06T02:40:59;15.50;99.90
46085;DHT22;31823;47.032;8.310;2022-07-06T02:43:24;15.50;99.90
46085;DHT22;31823;47.032;8.310;2022-07-06T02:45:50;15.40;99.90
46085;DHT22;31823;47.032;8.310;2022-07-06T02:48:16;15.40;99.90
46085;DHT22;31823;47.032;8.310;2022-07-06T02:50:41;15.40;99.90
46085;DHT22;31823;47.032;8.310;2022-07-06T02:53:07;15.30;99.90
46085;DHT22;31823;47.032;8.310;2022-07-06T02:55:33;15.30;99.90
46085;DHT22;31823;47.032;8.310;2022-07-06T02:57:58;15.20;99.90
46085;DHT22;31823;47.032;8.310;2022-07-06T03:00:24;15.20;99.90
46085;DHT22;31823;47.032;8.310;2022-07-06T03:02:50;15.20;99.90
46085;DHT22;31823;47.032;8.310;2022-07-06T03:05:15;15.20;99.90
46085;DHT22;31823;47.032;8.310;2022-07-06T03:07:41;15.10;99.90
46085;DHT22;31823;47.032;8.310;2022-07-06T03:10:07;15.10;99.90
46085;DHT22;31823;47.032;8.310;2022-07-06T03:12:33;15.00;99.90
46085;DHT22;31823;47.032;8.310;2022-07-06T03:14:58;15.00;99.90
46085;DHT22;31823;47.032;8.310;2022-07-06T03:17:24;15.00;99.90
46085;DHT22;31823;47.032;8.310;2022-07-06T03:19:50;14.80;99.90
46085;DHT22;31823;47.032;8.310;2022-07-06T03:22:16;14.90;99.90
46085;DHT22;31823;47.032;8.310;2022-07-06T03:24:41;14.70;99.90
46085;DHT22;31823;47.032;8.310;2022-07-06T03:27:07;14.70;99.90
46085;DHT22;31823;47.032;8.310;2022-07-06T03:29:32;14.80;99.90
46085;DHT22;31823;47.032;8.310;2022-07-06T03:31:58;14.80;99.90
46085;DHT22;31823;47.032;8.310;2022-07-06T03:34:24;14.70;99.90
46085;DHT22;31823;47.032;8.310;2022-07-06T03:36:49;14.80;99.90
46085;DHT22;31823;47.032;8.310;2022-07-06T03:39:15;14.80;99.90
46085;DHT22;31823;47.032;8.310;2022-07-06T03:41:40;14.70;99.90
46085;DHT22;31823;47.032;8.310;2022-07-06T03:44:06;14.70;99.90
46085;DHT22;31823;47.032;8.310;2022-07-06T03:46:32;14.70;99.90
46085;DHT22;31823;47.032;8.310;2022-07-06T03:48:57;14.60;99.90
46085;DHT22;31823;47.032;8.310;2022-07-06T03:51:23;14.60;99.90
46085;DHT22;31823;47.032;8.310;2022-07-06T03:53:48;14.60;99.90
46085;DHT22;31823;47.032;8.310;2022-07-06T03:56:14;14.70;99.90
46085;DHT22;31823;47.032;8.310;2022-07-06T03:59:02;14.70;99.90
46085;DHT22;31823;47.032;8.310;2022-07-06T04:01:28;14.80;99.90
46085;DHT22;31823;47.032;8.310;2022-07-06T04:04:01;14.70;99.90
46085;DHT22;31823;47.032;8.310;2022-07-06T04:06:26;14.60;99.90
46085;DHT22;31823;47.032;8.310;2022-07-06T04:08:52;14.60;99.90
46085;DHT22;31823;47.032;8.310;2022-07-06T04:11:18;14.70;99.90
46085;DHT22;31823;47.032;8.310;2022-07-06T04:13:44;14.60;99.90
46085;DHT22;31823;47.032;8.310;2022-07-06T04:16:09;14.60;99.90
46085;DHT22;31823;47.032;8.310;2022-07-06T04:18:35;14.50;99.90
46085;DHT22;31823;47.032;8.310;2022-07-06T04:21:01;14.50;99.90
46085;DHT22;31823;47.032;8.310;2022-07-06T04:23:27;14.50;99.90
46085;DHT22;31823;47.032;8.310;2022-07-06T04:25:53;14.50;99.90
46085;DHT22;31823;47.032;8.310;2022-07-06T04:28:19;14.40;99.90
46085;DHT22;31823;47.032;8.310;2022-07-06T04:30:44;14.40;99.90
46085;DHT22;31823;47.032;8.310;2022-07-06T04:33:10;14.50;99.90
46085;DHT22;31823;47.032;8.310;2022-07-06T04:35:36;14.50;99.90
46085;DHT22;31823;47.032;8.310;2022-07-06T04:38:01;14.50;99.90
46085;DHT22;31823;47.032;8.310;2022-07-06T04:40:27;14.50;99.90
46085;DHT22;31823;47.032;8.310;2022-07-06T04:42:52;14.50;99.90
46085;DHT22;31823;47.032;8.310;2022-07-06T04:45:18;14.50;99.90
46085;DHT22;31823;47.032;8.310;2022-07-06T04:47:44;14.50;99.90
46085;DHT22;31823;47.032;8.310;2022-07-06T04:50:10;14.40;99.90
46085;DHT22;31823;47.032;8.310;2022-07-06T04:52:36;14.30;99.90
46085;DHT22;31823;47.032;8.310;2022-07-06T04:55:02;14.40;99.90
46085;DHT22;31823;47.032;8.310;2022-07-06T04:57:29;14.40;99.90
46085;DHT22;31823;47.032;8.310;2022-07-06T04:59:55;14.50;99.90
46085;DHT22;31823;47.032;8.310;2022-07-06T05:02:22;14.60;99.90
46085;DHT22;31823;47.032;8.310;2022-07-06T05:04:47;14.60;99.90
46085;DHT22;31823;47.032;8.310;2022-07-06T05:07:13;14.60;99.90
46085;DHT22;31823;47.032;8.310;2022-07-06T05:09:39;14.60;99.90
46085;DHT22;31823;47.032;8.310;2022-07-06T05:12:05;14.70;99.90
46085;DHT22;31823;47.032;8.310;2022-07-06T05:14:30;14.70;99.90
46085;DHT22;31823;47.032;8.310;2022-07-06T05:16:56;14.70;99.90
46085;DHT22;31823;47.032;8.310;2022-07-06T05:19:22;14.70;99.90
46085;DHT22;31823;47.032;8.310;2022-07-06T05:21:47;14.70;99.90
46085;DHT22;31823;47.032;8.310;2022-07-06T05:24:13;14.70;99.90
46085;DHT22;31823;47.032;8.310;2022-07-06T05:26:38;14.80;99.90
46085;DHT22;31823;47.032;8.310;2022-07-06T05:29:04;14.80;99.90
46085;DHT22;31823;47.032;8.310;2022-07-06T05:31:30;14.80;99.90
46085;DHT22;31823;47.032;8.310;2022-07-06T05:33:55;14.80;99.90
46085;DHT22;31823;47.032;8.310;2022-07-06T05:36:21;14.90;99.90
46085;DHT22;31823;47.032;8.310;2022-07-06T05:38:46;14.90;99.90
46085;DHT22;31823;47.032;8.310;2022-07-06T05:41:12;15.00;99.90
46085;DHT22;31823;47.032;8.310;2022-07-06T05:43:38;14.90;99.90
46085;DHT22;31823;47.032;8.310;2022-07-06T05:46:04;15.00;99.90
46085;DHT22;31823;47.032;8.310;2022-07-06T05:48:29;15.00;99.90
46085;DHT22;31823;47.032;8.310;2022-07-06T05:51:14;15.00;99.90
46085;DHT22;31823;47.032;8.310;2022-07-06T05:53:40;15.10;99.90
46085;DHT22;31823;47.032;8.310;2022-07-06T05:56:05;15.10;99.90
46085;DHT22;31823;47.032;8.310;2022-07-06T05:58:31;15.10;99.90
46085;DHT22;31823;47.032;8.310;2022-07-06T06:00:57;15.20;99.90
46085;DHT22;31823;47.032;8.310;2022-07-06T06:03:23;15.30;99.90
46085;DHT22;31823;47.032;8.310;2022-07-06T06:05:49;15.40;99.90
46085;DHT22;31823;47.032;8.310;2022-07-06T06:08:15;15.50;99.90
46085;DHT22;31823;47.032;8.310;2022-07-06T06:10:40;15.60;99.90
46085;DHT22;31823;47.032;8.310;2022-07-06T06:13:06;15.60;99.90
46085;DHT22;31823;47.032;8.310;2022-07-06T06:15:31;15.70;99.90
46085;DHT22;31823;47.032;8.310;2022-07-06T06:17:57;15.80;99.90
46085;DHT22;31823;47.032;8.310;2022-07-06T06:20:23;15.90;99.90
46085;DHT22;31823;47.032;8.310;2022-07-06T06:25:28;16.00;99.90
46085;DHT22;31823;47.032;8.310;2022-07-06T06:27:54;16.20;99.90
46085;DHT22;31823;47.032;8.310;2022-07-06T06:30:20;16.20;99.90
46085;DHT22;31823;47.032;8.310;2022-07-06T06:32:46;16.40;99.90
46085;DHT22;31823;47.032;8.310;2022-07-06T06:35:11;16.70;99.90
46085;DHT22;31823;47.032;8.310;2022-07-06T06:37:37;17.20;99.90
46085;DHT22;31823;47.032;8.310;2022-07-06T06:40:04;17.40;99.90
46085;DHT22;31823;47.032;8.310;2022-07-06T06:42:30;18.10;99.90
46085;DHT22;31823;47.032;8.310;2022-07-06T06:44:56;18.50;99.90
46085;DHT22;31823;47.032;8.310;2022-07-06T06:47:21;18.60;99.90
46085;DHT22;31823;47.032;8.310;2022-07-06T06:49:47;18.30;99.90
46085;DHT22;31823;47.032;8.310;2022-07-06T06:52:13;18.20;99.90
46085;DHT22;31823;47.032;8.310;2022-07-06T06:54:39;18.30;99.90
46085;DHT22;31823;47.032;8.310;2022-07-06T06:57:05;18.80;99.90
46085;DHT22;31823;47.032;8.310;2022-07-06T06:59:31;19.30;99.90
46085;DHT22;31823;47.032;8.310;2022-07-06T07:01:56;19.20;99.90
46085;DHT22;31823;47.032;8.310;2022-07-06T07:04:22;19.50;99.90
46085;DHT22;31823;47.032;8.310;2022-07-06T07:06:48;19.70;99.90
46085;DHT22;31823;47.032;8.310;2022-07-06T07:09:14;19.40;99.90
46085;DHT22;31823;47.032;8.310;2022-07-06T07:11:39;19.30;99.90
46085;DHT22;31823;47.032;8.310;2022-07-06T07:14:05;19.50;99.90
46085;DHT22;31823;47.032;8.310;2022-07-06T07:16:31;19.70;99.90
46085;DHT22;31823;47.032;8.310;2022-07-06T07:18:56;19.80;99.90
46085;DHT22;31823;47.032;8.310;2022-07-06T07:21:22;20.10;99.90
46085;DHT22;31823;47.032;8.310;2022-07-06T07:23:48;20.20;99.90
46085;DHT22;31823;47.032;8.310;2022-07-06T07:26:15;20.30;99.90
46085;DHT22;31823;47.032;8.310;2022-07-06T07:28:41;20.20;99.90
46085;DHT22;31823;47.032;8.310;2022-07-06T07:31:07;20.70;99.90
46085;DHT22;31823;47.032;8.310;2022-07-06T07:33:33;20.60;99.90
46085;DHT22;31823;47.032;8.310;2022-07-06T07:35:59;20.30;99.90
46085;DHT22;31823;47.032;8.310;2022-07-06T07:38:25;20.20;99.90
46085;DHT22;31823;47.032;8.310;2022-07-06T07:40:53;20.50;99.90
46085;DHT22;31823;47.032;8.310;2022-07-06T07:43:19;20.50;99.90
46085;DHT22;31823;47.032;8.310;2022-07-06T07:45:44;21.20;99.90
46085;DHT22;31823;47.032;8.310;2022-07-06T07:48:10;20.90;99.90
46085;DHT22;31823;47.032;8.310;2022-07-06T07:50:36;21.10;99.90
46085;DHT22;31823;47.032;8.310;2022-07-06T07:53:02;21.20;99.90
46085;DHT22;31823;47.032;8.310;2022-07-06T07:55:28;21.40;99.90
46085;DHT22;31823;47.032;8.310;2022-07-06T07:57:53;21.30;99.90
46085;DHT22;31823;47.032;8.310;2022-07-06T08:00:19;21.50;99.90
46085;DHT22;31823;47.032;8.310;2022-07-06T08:02:47;21.60;99.90
46085;DHT22;31823;47.032;8.310;2022-07-06T08:05:12;21.50;99.90
46085;DHT22;31823;47.032;8.310;2022-07-06T08:07:43;21.30;99.90
46085;DHT22;31823;47.032;8.310;2022-07-06T08:10:10;21.70;99.90
46085;DHT22;31823;47.032;8.310;2022-07-06T08:12:36;21.70;99.90
46085;DHT22;31823;47.032;8.310;2022-07-06T08:15:02;21.70;99.90
46085;DHT22;31823;47.032;8.310;2022-07-06T08:17:28;22.00;99.90
46085;DHT22;31823;47.032;8.310;2022-07-06T08:19:54;21.70;99.90
46085;DHT22;31823;47.032;8.310;2022-07-06T08:22:20;21.50;99.90
46085;DHT22;31823;47.032;8.310;2022-07-06T08:24:46;21.90;99.90
46085;DHT22;31823;47.032;8.310;2022-07-06T08:27:11;21.90;99.90
46085;DHT22;31823;47.032;8.310;2022-07-06T08:29:38;22.30;99.90
46085;DHT22;31823;47.032;8.310;2022-07-06T08:32:04;22.30;99.90
46085;DHT22;31823;47.032;8.310;2022-07-06T08:34:30;21.70;98.60
46085;DHT22;31823;47.032;8.310;2022-07-06T08:36:56;21.90;99.60
46085;DHT22;31823;47.032;8.310;2022-07-06T08:39:22;21.90;96.60
46085;DHT22;31823;47.032;8.310;2022-07-06T08:41:48;22.00;99.90
46085;DHT22;31823;47.032;8.310;2022-07-06T08:44:15;22.20;99.90
46085;DHT22;31823;47.032;8.310;2022-07-06T08:46:41;22.60;99.30
46085;DHT22;31823;47.032;8.310;2022-07-06T08:49:08;22.30;99.90
46085;DHT22;31823;47.032;8.310;2022-07-06T08:51:37;22.10;99.90
46085;DHT22;31823;47.032;8.310;2022-07-06T08:54:04;22.10;97.50
46085;DHT22;31823;47.032;8.310;2022-07-06T08:56:30;22.40;98.90
46085;DHT22;31823;47.032;8.310;2022-07-06T08:58:55;22.30;99.90
46085;DHT22;31823;47.032;8.310;2022-07-06T09:01:22;22.40;99.90
46085;DHT22;31823;47.032;8.310;2022-07-06T09:03:50;22.50;99.90
46085;DHT22;31823;47.032;8.310;2022-07-06T09:06:23;22.40;99.90
46085;DHT22;31823;47.032;8.310;2022-07-06T09:08:53;22.10;98.20
46085;DHT22;31823;47.032;8.310;2022-07-06T09:11:21;22.10;99.60
46085;DHT22;31823;47.032;8.310;2022-07-06T09:13:47;22.60;99.80
46085;DHT22;31823;47.032;8.310;2022-07-06T09:16:15;23.10;99.90
46085;DHT22;31823;47.032;8.310;2022-07-06T09:18:44;23.20;99.90
46085;DHT22;31823;47.032;8.310;2022-07-06T09:21:10;23.00;99.70
46085;DHT22;31823;47.032;8.310;2022-07-06T09:23:37;23.30;99.30
46085;DHT22;31823;47.032;8.310;2022-07-06T09:26:05;23.10;97.20
46085;DHT22;31823;47.032;8.310;2022-07-06T09:28:44;23.50;99.90
46085;DHT22;31823;47.032;8.310;2022-07-06T09:31:10;23.70;99.90
46085;DHT22;31823;47.032;8.310;2022-07-06T09:33:36;23.00;97.00
46085;DHT22;31823;47.032;8.310;2022-07-06T09:36:02;23.20;98.00
46085;DHT22;31823;47.032;8.310;2022-07-06T09:38:28;23.60;98.00
46085;DHT22;31823;47.032;8.310;2022-07-06T09:40:54;23.50;98.70
46085;DHT22;31823;47.032;8.310;2022-07-06T09:43:21;23.50;97.50
46085;DHT22;31823;47.032;8.310;2022-07-06T09:45:54;23.80;97.70
46085;DHT22;31823;47.032;8.310;2022-07-06T09:48:25;23.90;98.30
46085;DHT22;31823;47.032;8.310;2022-07-06T09:50:59;24.00;98.40
46085;DHT22;31823;47.032;8.310;2022-07-06T09:53:26;23.70;98.40
46085;DHT22;31823;47.032;8.310;2022-07-06T09:55:53;23.50;97.40
46085;DHT22;31823;47.032;8.310;2022-07-06T09:58:20;23.80;97.50
46085;DHT22;31823;47.032;8.310;2022-07-06T10:00:48;23.90;94.60
46085;DHT22;31823;47.032;8.310;2022-07-06T10:03:15;24.40;95.30
46085;DHT22;31823;47.032;8.310;2022-07-06T10:05:45;24.30;97.30
46085;DHT22;31823;47.032;8.310;2022-07-06T10:08:15;24.30;95.50
46085;DHT22;31823;47.032;8.310;2022-07-06T10:10:42;24.80;96.30
46085;DHT22;31823;47.032;8.310;2022-07-06T10:13:09;24.80;96.50
46085;DHT22;31823;47.032;8.310;2022-07-06T10:15:37;25.10;95.20
46085;DHT22;31823;47.032;8.310;2022-07-06T10:18:05;25.00;96.10
46085;DHT22;31823;47.032;8.310;2022-07-06T10:20:33;25.40;94.90
46085;DHT22;31823;47.032;8.310;2022-07-06T10:23:01;25.60;93.60
46085;DHT22;31823;47.032;8.310;2022-07-06T10:25:27;25.30;95.40
46085;DHT22;31823;47.032;8.310;2022-07-06T10:27:53;25.30;95.60
46085;DHT22;31823;47.032;8.310;2022-07-06T10:30:21;25.20;95.80
46085;DHT22;31823;47.032;8.310;2022-07-06T10:32:48;25.50;94.50
46085;DHT22;31823;47.032;8.310;2022-07-06T10:35:15;25.30;93.80
46085;DHT22;31823;47.032;8.310;2022-07-06T10:37:42;25.60;93.40
46085;DHT22;31823;47.032;8.310;2022-07-06T10:40:08;25.30;93.80
46085;DHT22;31823;47.032;8.310;2022-07-06T10:42:58;25.70;94.60
46085;DHT22;31823;47.032;8.310;2022-07-06T10:50:37;25.50;93.90
46085;DHT22;31823;47.032;8.310;2022-07-06T10:53:02;25.50;93.20
46085;DHT22;31823;47.032;8.310;2022-07-06T10:55:36;25.80;93.10
46085;DHT22;31823;47.032;8.310;2022-07-06T10:58:03;26.20;93.40
46085;DHT22;31823;47.032;8.310;2022-07-06T11:00:52;25.60;94.40
46085;DHT22;31823;47.032;8.310;2022-07-06T11:03:32;25.60;94.10
46085;DHT22;31823;47.032;8.310;2022-07-06T11:06:05;25.40;95.00
46085;DHT22;31823;47.032;8.310;2022-07-06T11:13:58;25.80;95.20
46085;DHT22;31823;47.032;8.310;2022-07-06T11:16:26;26.00;94.90
46085;DHT22;31823;47.032;8.310;2022-07-06T11:24:07;26.20;94.00
46085;DHT22;31823;47.032;8.310;2022-07-06T11:26:33;26.30;93.00
46085;DHT22;31823;47.032;8.310;2022-07-06T11:29:03;25.90;95.20
46085;DHT22;31823;47.032;8.310;2022-07-06T11:31:29;25.80;94.40
46085;DHT22;31823;47.032;8.310;2022-07-06T11:33:54;26.10;94.20
46085;DHT22;31823;47.032;8.310;2022-07-06T11:36:22;26.20;92.30
46085;DHT22;31823;47.032;8.310;2022-07-06T11:38:49;26.30;93.00
46085;DHT22;31823;47.032;8.310;2022-07-06T11:41:17;26.70;93.40
46085;DHT22;31823;47.032;8.310;2022-07-06T11:43:43;26.40;91.80
46085;DHT22;31823;47.032;8.310;2022-07-06T11:46:30;26.40;94.90
46085;DHT22;31823;47.032;8.310;2022-07-06T11:48:59;26.50;92.00
46085;DHT22;31823;47.032;8.310;2022-07-06T11:51:26;25.90;91.70
46085;DHT22;31823;47.032;8.310;2022-07-06T11:53:55;26.10;92.00
46085;DHT22;31823;47.032;8.310;2022-07-06T11:56:21;26.40;93.70
46085;DHT22;31823;47.032;8.310;2022-07-06T11:58:52;26.20;91.40
46085;DHT22;31823;47.032;8.310;2022-07-06T12:01:18;26.30;93.00
46085;DHT22;31823;47.032;8.310;2022-07-06T12:03:44;26.60;92.10
46085;DHT22;31823;47.032;8.310;2022-07-06T12:08:48;26.60;91.60
46085;DHT22;31823;47.032;8.310;2022-07-06T12:11:29;26.60;92.60
46085;DHT22;31823;47.032;8.310;2022-07-06T12:13:56;27.10;91.00
46085;DHT22;31823;47.032;8.310;2022-07-06T12:16:34;26.80;91.70
46085;DHT22;31823;47.032;8.310;2022-07-06T12:19:00;25.90;88.90
46085;DHT22;31823;47.032;8.310;2022-07-06T12:21:26;26.70;93.00
46085;DHT22;31823;47.032;8.310;2022-07-06T12:23:53;26.70;93.20
46085;DHT22;31823;47.032;8.310;2022-07-06T12:26:21;26.60;91.10
46085;DHT22;31823;47.032;8.310;2022-07-06T12:29:10;26.40;92.40
46085;DHT22;31823;47.032;8.310;2022-07-06T12:34:39;26.50;92.30
46085;DHT22;31823;47.032;8.310;2022-07-06T12:37:09;26.80;91.30
46085;DHT22;31823;47.032;8.310;2022-07-06T12:39:43;26.00;90.40
46085;DHT22;31823;47.032;8.310;2022-07-06T12:42:09;24.90;88.20
46085;DHT22;31823;47.032;8.310;2022-07-06T12:44:48;25.00;91.50
46085;DHT22;31823;47.032;8.310;2022-07-06T12:47:21;25.20;91.30
46085;DHT22;31823;47.032;8.310;2022-07-06T12:50:03;25.40;91.40
46085;DHT22;31823;47.032;8.310;2022-07-06T12:52:30;25.90;90.10
46085;DHT22;31823;47.032;8.310;2022-07-06T12:54:55;26.30;91.00
46085;DHT22;31823;47.032;8.310;2022-07-06T12:57:25;26.40;91.20
46085;DHT22;31823;47.032;8.310;2022-07-06T13:02:22;27.30;92.20
46085;DHT22;31823;47.032;8.310;2022-07-06T13:05:15;26.60;88.30
46085;DHT22;31823;47.032;8.310;2022-07-06T13:07:46;26.60;91.20
46085;DHT22;31823;47.032;8.310;2022-07-06T13:10:13;26.60;87.00
46085;DHT22;31823;47.032;8.310;2022-07-06T13:12:40;27.10;91.40
46085;DHT22;31823;47.032;8.310;2022-07-06T13:15:07;26.80;85.40
46085;DHT22;31823;47.032;8.310;2022-07-06T13:17:34;26.60;89.20
46085;DHT22;31823;47.032;8.310;2022-07-06T13:19:59;26.70;91.30
46085;DHT22;31823;47.032;8.310;2022-07-06T13:22:25;26.00;89.30
46085;DHT22;31823;47.032;8.310;2022-07-06T13:24:51;25.90;91.10
46085;DHT22;31823;47.032;8.310;2022-07-06T13:27:17;26.50;90.40
46085;DHT22;31823;47.032;8.310;2022-07-06T13:29:42;27.00;95.70
46085;DHT22;31823;47.032;8.310;2022-07-06T13:32:08;27.00;90.10
46085;DHT22;31823;47.032;8.310;2022-07-06T13:34:34;26.40;91.70
46085;DHT22;31823;47.032;8.310;2022-07-06T13:37:04;26.10;89.90
46085;DHT22;31823;47.032;8.310;2022-07-06T13:39:30;26.10;91.30
46085;DHT22;31823;47.032;8.310;2022-07-06T13:41:56;26.70;92.50
46085;DHT22;31823;47.032;8.310;2022-07-06T13:44:22;25.40;90.40
46085;DHT22;31823;47.032;8.310;2022-07-06T13:46:48;25.60;92.60
46085;DHT22;31823;47.032;8.310;2022-07-06T13:49:16;26.30;92.70
46085;DHT22;31823;47.032;8.310;2022-07-06T13:51:42;25.80;91.20
46085;DHT22;31823;47.032;8.310;2022-07-06T13:54:08;26.00;91.70
46085;DHT22;31823;47.032;8.310;2022-07-06T13:56:34;26.80;93.90
46085;DHT22;31823;47.032;8.310;2022-07-06T13:59:00;26.60;86.80
46085;DHT22;31823;47.032;8.310;2022-07-06T14:01:25;26.00;95.20
46085;DHT22;31823;47.032;8.310;2022-07-06T14:03:51;26.00;93.20
46085;DHT22;31823;47.032;8.310;2022-07-06T14:06:18;26.10;92.70
46085;DHT22;31823;47.032;8.310;2022-07-06T14:08:45;25.90;90.60
46085;DHT22;31823;47.032;8.310;2022-07-06T14:11:11;26.20;90.50
46085;DHT22;31823;47.032;8.310;2022-07-06T14:13:37;25.70;88.90
46085;DHT22;31823;47.032;8.310;2022-07-06T14:16:03;25.60;91.00
46085;DHT22;31823;47.032;8.310;2022-07-06T14:18:29;25.30;92.70
46085;DHT22;31823;47.032;8.310;2022-07-06T14:20:55;25.50;88.50
46085;DHT22;31823;47.032;8.310;2022-07-06T14:23:21;26.50;93.50
46085;DHT22;31823;47.032;8.310;2022-07-06T14:25:47;26.00;90.80
46085;DHT22;31823;47.032;8.310;2022-07-06T14:28:14;25.30;90.90
46085;DHT22;31823;47.032;8.310;2022-07-06T14:30:40;25.00;91.40
46085;DHT22;31823;47.032;8.310;2022-07-06T14:33:07;24.90;91.90
46085;DHT22;31823;47.032;8.310;2022-07-06T14:35:44;24.90;91.50
46085;DHT22;31823;47.032;8.310;2022-07-06T14:38:10;24.70;92.60
46085;DHT22;31823;47.032;8.310;2022-07-06T14:40:36;24.50;92.30
46085;DHT22;31823;47.032;8.310;2022-07-06T14:43:03;23.50;99.40
46085;DHT22;31823;47.032;8.310;2022-07-06T14:45:29;23.90;93.50
46085;DHT22;31823;47.032;8.310;2022-07-06T14:47:55;24.20;94.10
46085;DHT22;31823;47.032;8.310;2022-07-06T14:50:21;23.50;94.50
46085;DHT22;31823;47.032;8.310;2022-07-06T14:52:50;23.10;99.90
46085;DHT22;31823;47.032;8.310;2022-07-06T14:55:17;22.90;99.90
46085;DHT22;31823;47.032;8.310;2022-07-06T14:57:43;23.20;99.90
46085;DHT22;31823;47.032;8.310;2022-07-06T15:00:09;24.80;96.10
46085;DHT22;31823;47.032;8.310;2022-07-06T15:02:35;25.70;94.50
46085;DHT22;31823;47.032;8.310;2022-07-06T15:05:00;24.80;98.60
46085;DHT22;31823;47.032;8.310;2022-07-06T15:07:26;24.40;96.40
46085;DHT22;31823;47.032;8.310;2022-07-06T15:09:52;24.50;93.40
46085;DHT22;31823;47.032;8.310;2022-07-06T15:12:17;24.50;94.90
46085;DHT22;31823;47.032;8.310;2022-07-06T15:14:43;23.90;99.90
46085;DHT22;31823;47.032;8.310;2022-07-06T15:17:09;23.80;99.90
46085;DHT22;31823;47.032;8.310;2022-07-06T15:19:35;24.50;99.20
46085;DHT22;31823;47.032;8.310;2022-07-06T15:22:02;25.30;95.30
46085;DHT22;31823;47.032;8.310;2022-07-06T15:24:28;25.50;93.50
46085;DHT22;31823;47.032;8.310;2022-07-06T15:26:54;24.80;92.60
46085;DHT22;31823;47.032;8.310;2022-07-06T15:29:20;25.40;93.70
46085;DHT22;31823;47.032;8.310;2022-07-06T15:31:45;25.80;92.40
46085;DHT22;31823;47.032;8.310;2022-07-06T15:34:11;25.80;94.30
46085;DHT22;31823;47.032;8.310;2022-07-06T15:36:37;25.70;91.20
46085;DHT22;31823;47.032;8.310;2022-07-06T15:39:03;25.00;93.00
46085;DHT22;31823;47.032;8.310;2022-07-06T15:41:28;24.80;91.80
46085;DHT22;31823;47.032;8.310;2022-07-06T15:43:54;24.60;92.10
46085;DHT22;31823;47.032;8.310;2022-07-06T15:46:20;24.70;92.60
46085;DHT22;31823;47.032;8.310;2022-07-06T15:48:46;25.00;92.50
46085;DHT22;31823;47.032;8.310;2022-07-06T15:51:11;24.70;90.80
46085;DHT22;31823;47.032;8.310;2022-07-06T15:53:37;24.40;91.50